createdAt,value
2018-10-17T00:01:25.637Z,81.96
2018-10-17T00:03:53.338Z,81.17
2018-10-17T00:06:21.094Z,81.24
2018-10-17T00:08:48.835Z,80.62
2018-10-17T00:11:16.569Z,79.88
2018-10-17T00:13:44.282Z,80.19
2018-10-17T00:16:12.045Z,79.95
2018-10-17T00:18:39.755Z,79.96
2018-10-17T00:21:07.468Z,80.25
2018-10-17T00:23:35.309Z,80.63
2018-10-17T00:26:04.046Z,79.65
2018-10-17T00:28:32.167Z,81.40
2018-10-17T00:30:59.937Z,81.43
2018-10-17T00:33:27.625Z,81.57
2018-10-17T00:35:55.332Z,82.17
2018-10-17T00:38:23.154Z,82.80
2018-10-17T00:40:50.862Z,82.30
2018-10-17T00:43:18.653Z,81.92
2018-10-17T00:45:46.303Z,81.45
2018-10-17T00:48:14.009Z,81.42
2018-10-17T00:50:41.701Z,81.48
2018-10-17T00:53:09.478Z,82.93
2018-10-17T00:55:37.146Z,83.14
2018-10-17T00:58:05.040Z,82.42
2018-10-17T01:00:32.740Z,82.60
2018-10-17T01:03:00.454Z,82.13
2018-10-17T01:05:28.168Z,82.65
2018-10-17T01:07:55.877Z,82.40
2018-10-17T01:10:23.590Z,82.85
2018-10-17T01:12:51.328Z,83.22
2018-10-17T01:15:19.045Z,83.65
2018-10-17T01:17:46.754Z,84.04
2018-10-17T01:20:14.497Z,84.73
2018-10-17T01:22:42.257Z,84.65
2018-10-17T01:25:10.022Z,85.20
2018-10-17T01:27:37.698Z,84.61
2018-10-17T01:30:10.906Z,85.56
2018-10-17T01:32:38.597Z,85.14
2018-10-17T01:35:06.891Z,85.27
2018-10-17T01:37:34.653Z,84.35
2018-10-17T01:40:02.369Z,84.94
2018-10-17T01:42:30.076Z,85.31
2018-10-17T01:44:57.757Z,86.20
2018-10-17T01:47:25.464Z,86.60
2018-10-17T01:49:53.157Z,86.76
2018-10-17T01:52:20.851Z,86.18
2018-10-17T01:54:48.570Z,85.04
2018-10-17T01:57:16.269Z,84.76
2018-10-17T01:59:43.977Z,85.69
2018-10-17T02:02:11.677Z,87.01
2018-10-17T02:04:39.390Z,85.22
2018-10-17T02:07:07.167Z,85.05
2018-10-17T02:09:34.821Z,84.81
2018-10-17T02:12:02.549Z,85.97
2018-10-17T02:14:30.233Z,86.36
2018-10-17T02:16:57.956Z,87.20
2018-10-17T02:19:25.663Z,87.04
2018-10-17T02:21:53.362Z,87.54
2018-10-17T02:24:21.053Z,87.07
2018-10-17T02:26:48.789Z,87.80
2018-10-17T02:29:16.555Z,88.41
2018-10-17T02:31:44.225Z,88.77
2018-10-17T02:34:11.973Z,87.76
2018-10-17T02:36:39.682Z,87.79
2018-10-17T02:39:08.975Z,88.73
2018-10-17T02:41:36.762Z,88.67
2018-10-17T02:44:05.021Z,87.92
2018-10-17T02:46:32.742Z,87.73
2018-10-17T02:49:00.537Z,87.99
2018-10-17T02:51:28.271Z,88.95
2018-10-17T02:53:55.977Z,88.26
2018-10-17T02:56:23.702Z,88.67
2018-10-17T02:58:51.400Z,88.99
2018-10-17T03:01:19.152Z,89.12
2018-10-17T03:03:46.890Z,89.24
2018-10-17T03:06:14.594Z,89.89
2018-10-17T03:08:42.311Z,88.90
2018-10-17T03:11:10.230Z,87.73
2018-10-17T03:13:38.346Z,87.95
2018-10-17T03:16:06.066Z,87.20
2018-10-17T03:18:33.890Z,86.96
2018-10-17T03:21:01.635Z,86.98
2018-10-17T03:23:29.350Z,87.75
2018-10-17T03:25:57.057Z,87.84
2018-10-17T03:28:24.774Z,87.59
2018-10-17T03:30:52.493Z,87.98
2018-10-17T03:33:20.267Z,87.91
2018-10-17T03:35:48.026Z,87.00
2018-10-17T03:38:15.786Z,85.95
2018-10-17T03:40:43.569Z,86.99
2018-10-17T03:43:11.489Z,87.17
2018-10-17T03:45:39.154Z,87.30
2018-10-17T03:48:06.858Z,86.28
2018-10-17T03:50:35.389Z,85.06
2018-10-17T03:53:03.338Z,86.51
2018-10-17T03:55:31.105Z,86.81
2018-10-17T03:57:58.825Z,88.17
2018-10-17T04:00:26.540Z,88.57
2018-10-17T04:02:54.297Z,87.82
2018-10-17T04:05:21.986Z,88.41
2018-10-17T04:07:49.722Z,88.02
2018-10-17T04:10:17.406Z,88.03
2018-10-17T04:12:45.138Z,88.88
2018-10-17T04:15:12.882Z,88.82
2018-10-17T04:17:40.630Z,89.04
2018-10-17T04:20:08.347Z,88.23
2018-10-17T04:22:36.134Z,87.17
2018-10-17T04:25:15.482Z,87.41
2018-10-17T04:27:43.171Z,87.09
2018-10-17T04:30:10.882Z,87.34
2018-10-17T04:32:38.584Z,87.87
2018-10-17T04:35:06.380Z,86.71
2018-10-17T04:37:34.091Z,86.35
2018-10-17T04:40:01.809Z,86.53
2018-10-17T04:42:29.549Z,86.11
2018-10-17T04:44:57.254Z,86.38
2018-10-17T04:47:25.005Z,87.40
2018-10-17T04:49:52.723Z,84.70
2018-10-17T04:52:20.420Z,86.07
2018-10-17T04:54:48.162Z,87.06
2018-10-17T04:57:15.885Z,87.09
2018-10-17T04:59:43.598Z,87.16
2018-10-17T05:02:11.300Z,86.71
2018-10-17T05:04:39.083Z,87.05
2018-10-17T05:07:06.827Z,86.62
2018-10-17T05:09:34.554Z,86.36
2018-10-17T05:12:02.289Z,86.39
2018-10-17T05:14:30.014Z,86.78
2018-10-17T05:16:57.807Z,86.67
2018-10-17T05:19:25.664Z,86.09
2018-10-17T05:21:53.414Z,85.59
2018-10-17T05:24:21.117Z,85.02
2018-10-17T05:26:48.962Z,83.99
2018-10-17T05:29:16.968Z,82.89
2018-10-17T05:31:44.735Z,82.75
2018-10-17T05:34:12.526Z,82.39
2018-10-17T05:36:40.245Z,81.34
2018-10-17T05:39:08.369Z,81.21
2018-10-17T05:41:36.117Z,80.44
2018-10-17T05:44:04.110Z,80.14
2018-10-17T05:46:31.810Z,79.89
2018-10-17T05:48:59.561Z,79.87
2018-10-17T05:51:27.274Z,79.48
2018-10-17T05:53:55.020Z,78.51
2018-10-17T05:56:22.798Z,78.44
2018-10-17T05:58:50.551Z,78.96
2018-10-17T06:01:18.365Z,78.96
2018-10-17T06:03:46.051Z,79.27
2018-10-17T06:06:13.790Z,77.29
2018-10-17T06:08:41.497Z,76.28
2018-10-17T06:11:09.223Z,75.59
2018-10-17T06:13:36.938Z,75.73
2018-10-17T06:16:04.742Z,75.77
2018-10-17T06:18:32.446Z,74.40
2018-10-17T06:21:00.282Z,74.25
2018-10-17T06:23:28.022Z,72.01
2018-10-17T06:25:55.771Z,73.03
2018-10-17T06:28:23.535Z,71.12
2018-10-17T06:30:51.304Z,71.32
2018-10-17T06:33:19.145Z,70.83
2018-10-17T06:35:46.861Z,70.49
2018-10-17T06:38:14.714Z,69.62
2018-10-17T06:40:42.411Z,69.95
2018-10-17T06:43:10.178Z,68.08
2018-10-17T06:45:37.968Z,68.92
2018-10-17T06:48:05.935Z,68.52
2018-10-17T06:50:33.651Z,67.12
2018-10-17T06:53:01.367Z,66.66
2018-10-17T06:55:29.101Z,66.46
2018-10-17T06:57:57.641Z,66.84
2018-10-17T07:00:25.375Z,66.32
2018-10-17T07:02:53.103Z,65.57
2018-10-17T07:05:20.856Z,65.86
2018-10-17T07:07:48.598Z,64.35
2018-10-17T07:10:17.249Z,64.03
2018-10-17T07:12:44.961Z,65.94
2018-10-17T07:15:12.727Z,66.13
2018-10-17T07:17:40.450Z,62.73
2018-10-17T07:20:08.806Z,62.95
2018-10-17T07:22:36.517Z,63.32
2018-10-17T07:25:04.728Z,64.03
2018-10-17T07:27:32.401Z,63.92
2018-10-17T07:30:00.123Z,64.38
2018-10-17T07:32:27.876Z,63.73
2018-10-17T07:34:55.613Z,64.35
2018-10-17T07:37:23.325Z,63.00
2018-10-17T07:39:51.113Z,62.94
2018-10-17T07:42:18.931Z,62.51
2018-10-17T07:44:46.570Z,61.16
2018-10-17T07:47:14.303Z,61.12
2018-10-17T07:49:42.013Z,61.55
2018-10-17T07:52:09.799Z,61.33
2018-10-17T07:54:37.539Z,62.77
2018-10-17T07:57:05.738Z,62.55
2018-10-17T07:59:33.518Z,61.95
2018-10-17T08:02:01.222Z,61.68
2018-10-17T08:04:29.002Z,61.87
2018-10-17T08:06:56.713Z,61.72
2018-10-17T08:09:24.398Z,60.30
2018-10-17T08:11:52.116Z,59.55
2018-10-17T08:14:20.700Z,59.83
2018-10-17T08:16:48.435Z,59.86
2018-10-17T08:19:16.151Z,59.16
2018-10-17T08:21:43.872Z,58.64
2018-10-17T08:24:11.721Z,57.75
2018-10-17T08:26:39.447Z,58.70
2018-10-17T08:29:07.173Z,58.52
2018-10-17T08:31:34.886Z,56.32
2018-10-17T08:34:02.684Z,56.90
2018-10-17T08:36:30.631Z,57.36
2018-10-17T08:38:58.170Z,57.83
2018-10-17T08:41:25.923Z,56.50
2018-10-17T08:43:53.722Z,55.39
2018-10-17T08:46:21.411Z,57.74
2018-10-17T08:48:49.150Z,56.21
2018-10-17T08:51:16.870Z,57.39
2018-10-17T08:53:44.681Z,57.46
2018-10-17T08:56:12.467Z,56.37
2018-10-17T08:58:40.527Z,57.83
2018-10-17T09:01:08.370Z,56.98
2018-10-17T09:03:36.106Z,56.75
2018-10-17T09:06:03.842Z,56.89
2018-10-17T09:08:31.609Z,55.77
2018-10-17T09:10:59.334Z,56.50
2018-10-17T09:13:27.123Z,57.50
2018-10-17T09:15:54.818Z,56.80
2018-10-17T09:18:22.571Z,57.39
2018-10-17T09:20:50.542Z,56.54
2018-10-17T09:23:18.050Z,58.05
2018-10-17T09:25:45.878Z,58.31
2018-10-17T09:28:13.645Z,58.70
2018-10-17T09:30:41.411Z,58.46
2018-10-17T09:33:09.074Z,57.08
2018-10-17T09:35:36.821Z,56.72
2018-10-17T09:38:04.606Z,57.31
2018-10-17T09:40:32.333Z,55.73
2018-10-17T09:43:00.053Z,56.37
2018-10-17T09:45:27.766Z,56.54
2018-10-17T09:47:55.534Z,56.10
2018-10-17T09:50:23.309Z,55.79
2018-10-17T09:52:51.061Z,55.48
2018-10-17T09:55:18.807Z,53.88
2018-10-17T09:57:46.539Z,54.94
2018-10-17T10:00:19.990Z,54.91
2018-10-17T10:02:47.705Z,56.03
2018-10-17T10:05:15.442Z,54.46
2018-10-17T10:07:43.170Z,54.98
2018-10-17T10:10:10.933Z,55.04
2018-10-17T10:12:38.647Z,55.19
2018-10-17T10:15:06.451Z,54.94
2018-10-17T10:17:34.457Z,53.65
2018-10-17T10:20:02.197Z,53.46
2018-10-17T10:22:30.208Z,55.31
2018-10-17T10:24:58.045Z,56.00
2018-10-17T10:27:25.883Z,55.84
2018-10-17T10:29:53.729Z,55.00
2018-10-17T10:32:21.384Z,52.71
2018-10-17T10:34:49.155Z,54.01
2018-10-17T10:37:17.142Z,53.23
2018-10-17T10:39:44.875Z,54.20
2018-10-17T10:42:12.777Z,54.15
2018-10-17T10:44:40.562Z,53.98
2018-10-17T10:47:08.370Z,56.08
2018-10-17T10:49:36.102Z,56.42
2018-10-17T10:52:03.884Z,57.14
2018-10-17T10:54:31.587Z,57.94
2018-10-17T10:56:59.289Z,59.49
2018-10-17T10:59:27.182Z,59.36
2018-10-17T11:01:54.851Z,58.04
2018-10-17T11:04:22.577Z,59.25
2018-10-17T11:06:50.316Z,59.36
2018-10-17T11:09:18.055Z,60.03
2018-10-17T11:11:45.778Z,59.57
2018-10-17T11:14:13.621Z,59.98
2018-10-17T11:16:41.236Z,60.91
2018-10-17T11:19:08.961Z,61.00
2018-10-17T11:21:36.671Z,61.90
2018-10-17T11:24:04.629Z,62.17
2018-10-17T11:26:32.350Z,62.64
2018-10-17T11:29:00.117Z,62.84
2018-10-17T11:31:27.925Z,61.89
2018-10-17T11:33:55.637Z,62.80
2018-10-17T11:36:23.376Z,63.68
2018-10-17T11:38:51.136Z,64.62
2018-10-17T11:41:19.008Z,64.33
2018-10-17T11:43:46.621Z,64.79
2018-10-17T11:46:14.447Z,64.39
2018-10-17T11:48:42.162Z,64.01
2018-10-17T11:51:09.923Z,64.44
2018-10-17T11:53:37.680Z,64.84
2018-10-17T11:56:05.594Z,66.26
2018-10-17T11:58:33.490Z,66.71
2018-10-17T12:01:01.376Z,67.34
2018-10-17T12:03:29.467Z,68.97
2018-10-17T12:05:57.464Z,70.90
2018-10-17T12:08:25.179Z,73.69
2018-10-17T12:10:53.054Z,75.98
2018-10-17T12:13:20.919Z,75.95
2018-10-17T12:15:48.785Z,75.86
2018-10-17T12:18:16.779Z,74.38
2018-10-17T12:20:44.623Z,75.73
2018-10-17T12:23:12.526Z,76.50
2018-10-17T12:25:40.425Z,77.32
2018-10-17T12:28:08.405Z,78.51
2018-10-17T12:30:36.182Z,77.70
2018-10-17T12:33:04.172Z,77.65
2018-10-17T12:35:32.102Z,79.80
2018-10-17T12:37:59.985Z,77.47
2018-10-17T12:40:27.905Z,81.34
2018-10-17T12:42:55.763Z,78.83
2018-10-17T12:45:23.683Z,81.37
2018-10-17T12:47:51.663Z,80.90
2018-10-17T12:50:19.670Z,78.52
2018-10-17T12:52:47.545Z,79.72
2018-10-17T12:55:15.439Z,82.10
2018-10-17T12:57:43.314Z,79.06
2018-10-17T13:00:11.262Z,81.74
2018-10-17T13:02:39.503Z,80.15
2018-10-17T13:05:08.628Z,80.18
2018-10-17T13:07:36.534Z,82.31
2018-10-17T13:10:04.902Z,81.60
2018-10-17T13:12:32.782Z,81.18
2018-10-17T13:15:00.720Z,83.08
2018-10-17T13:17:28.649Z,84.04
2018-10-17T13:19:56.527Z,83.75
2018-10-17T13:22:24.387Z,85.07
2018-10-17T13:24:52.284Z,85.90
2018-10-17T13:27:20.158Z,85.36
2018-10-17T13:29:48.042Z,83.98
2018-10-17T13:32:15.986Z,81.94
2018-10-17T13:34:43.902Z,80.55
2018-10-17T13:37:11.870Z,80.18
2018-10-17T13:39:39.719Z,78.95
2018-10-17T13:42:07.680Z,81.09
2018-10-17T13:44:35.560Z,81.82
2018-10-17T13:47:03.571Z,79.18
2018-10-17T13:49:31.566Z,79.99
2018-10-17T13:51:59.447Z,80.50
2018-10-17T13:54:27.360Z,80.08
2018-10-17T13:56:55.286Z,80.64
2018-10-17T13:59:23.369Z,80.11
2018-10-17T14:01:51.135Z,80.51
2018-10-17T14:04:19.019Z,81.63
2018-10-17T14:06:46.899Z,80.91
2018-10-17T14:09:14.855Z,81.49
2018-10-17T14:11:42.886Z,81.77
2018-10-17T14:14:10.670Z,82.08
2018-10-17T14:16:38.555Z,81.08
2018-10-17T14:19:06.444Z,80.03
2018-10-17T14:21:34.314Z,82.83
2018-10-17T14:24:02.208Z,81.72
2018-10-17T14:26:30.093Z,82.75
2018-10-17T14:28:57.985Z,83.93
2018-10-17T14:31:25.866Z,82.99
2018-10-17T14:33:53.771Z,82.40
2018-10-17T14:36:21.680Z,83.18
2018-10-17T14:38:49.558Z,83.63
2018-10-17T14:41:17.539Z,82.45
2018-10-17T14:43:45.415Z,84.20
2018-10-17T14:46:13.290Z,83.80
2018-10-17T14:48:41.174Z,83.17
2018-10-17T14:51:09.086Z,83.99
2018-10-17T14:53:36.989Z,82.93
2018-10-17T14:56:04.992Z,84.60
2018-10-17T14:58:33.182Z,84.91
2018-10-17T15:01:01.060Z,84.74
2018-10-17T15:03:28.960Z,85.15
2018-10-17T15:05:57.214Z,85.31
2018-10-17T15:08:25.075Z,84.85
2018-10-17T15:10:53.194Z,84.65
2018-10-17T15:13:20.870Z,83.29
2018-10-17T15:15:48.783Z,82.66
2018-10-17T15:18:17.139Z,79.60
2018-10-17T15:20:44.967Z,80.87
2018-10-17T15:23:13.268Z,81.17
2018-10-17T15:25:41.019Z,84.02
2018-10-17T15:28:08.726Z,84.14
2018-10-17T15:30:36.442Z,83.71
2018-10-17T15:33:04.386Z,85.13
2018-10-17T15:35:32.211Z,85.36
2018-10-17T15:37:59.979Z,86.20
2018-10-17T15:40:27.712Z,86.74
2018-10-17T15:42:55.473Z,86.96
2018-10-17T15:45:23.208Z,88.61
2018-10-17T15:47:50.992Z,88.45
2018-10-17T15:50:18.747Z,90.06
2018-10-17T15:52:46.463Z,90.40
2018-10-17T15:55:14.197Z,90.26
2018-10-17T15:57:41.986Z,89.60
2018-10-17T16:00:10.742Z,92.36
2018-10-17T16:02:38.513Z,92.60
2018-10-17T16:05:08.391Z,91.60
2018-10-17T16:07:36.111Z,91.79
2018-10-17T16:10:03.935Z,92.62
2018-10-17T16:12:31.687Z,93.02
2018-10-17T16:14:59.507Z,93.86
2018-10-17T16:17:27.299Z,94.94
2018-10-17T16:19:55.053Z,94.22
2018-10-17T16:22:22.777Z,94.34
2018-10-17T16:24:50.516Z,94.96
2018-10-17T16:27:18.329Z,95.17
2018-10-17T16:29:46.071Z,95.82
2018-10-17T16:32:13.827Z,95.61
2018-10-17T16:34:41.579Z,95.94
2018-10-17T16:37:09.318Z,96.80
2018-10-17T16:39:37.047Z,97.25
2018-10-17T16:42:05.324Z,96.66
2018-10-17T16:44:33.043Z,96.71
2018-10-17T16:47:00.783Z,96.40
2018-10-17T16:49:28.534Z,96.42
2018-10-17T16:51:56.319Z,96.25
2018-10-17T16:54:24.266Z,96.79
2018-10-17T16:56:52.052Z,96.17
2018-10-17T16:59:19.786Z,96.84
2018-10-17T17:01:47.566Z,97.24
2018-10-17T17:04:15.287Z,96.89
2018-10-17T17:06:43.037Z,97.29
2018-10-17T17:09:11.492Z,97.44
2018-10-17T17:11:39.232Z,96.98
2018-10-17T17:14:07.010Z,97.42
2018-10-17T17:16:34.857Z,97.50
2018-10-17T17:19:02.623Z,97.52
2018-10-17T17:21:30.371Z,97.23
2018-10-17T17:23:58.163Z,95.41
2018-10-17T17:26:25.916Z,95.22
2018-10-17T17:28:53.617Z,95.20
2018-10-17T17:31:21.375Z,95.71
2018-10-17T17:33:49.111Z,95.38
2018-10-17T17:36:16.876Z,95.56
2018-10-17T17:38:44.693Z,96.22
2018-10-17T17:41:12.410Z,96.24
2018-10-17T17:43:40.157Z,97.03
2018-10-17T17:46:07.958Z,96.78
2018-10-17T17:48:35.621Z,97.20
2018-10-17T17:51:03.368Z,97.35
2018-10-17T17:53:31.085Z,97.36
2018-10-17T17:55:58.815Z,97.45
2018-10-17T17:58:26.928Z,97.51
2018-10-17T18:00:54.583Z,97.83
2018-10-17T18:03:22.307Z,98.16
2018-10-17T18:05:50.031Z,97.51
2018-10-17T18:08:17.880Z,97.22
2018-10-17T18:10:45.925Z,98.10
2018-10-17T18:13:13.618Z,98.94
2018-10-17T18:15:41.325Z,99.36
2018-10-17T18:18:09.065Z,100.00
2018-10-17T18:20:36.802Z,99.44
2018-10-17T18:23:05.215Z,99.24
2018-10-17T18:25:33.202Z,98.38
2018-10-17T18:28:01.112Z,98.11
2018-10-17T18:30:28.758Z,97.08
2018-10-17T18:32:57.266Z,95.57
2018-10-17T18:35:25.089Z,95.44
2018-10-17T18:37:52.795Z,95.28
2018-10-17T18:40:20.514Z,95.26
2018-10-17T18:42:48.249Z,95.30
2018-10-17T18:45:16.025Z,95.05
2018-10-17T18:47:43.767Z,94.51
2018-10-17T18:50:11.657Z,94.54
2018-10-17T18:52:39.386Z,94.40
2018-10-17T18:55:07.835Z,94.83
2018-10-17T18:57:35.548Z,94.12
2018-10-17T19:00:03.446Z,93.75
2018-10-17T19:02:31.153Z,93.03
2018-10-17T19:04:58.862Z,93.28
2018-10-17T19:07:26.572Z,92.34
2018-10-17T19:09:54.334Z,92.17
2018-10-17T19:12:22.107Z,92.52
2018-10-17T19:14:49.838Z,93.07
2018-10-17T19:17:17.546Z,92.72
2018-10-17T19:19:45.258Z,92.30
2018-10-17T19:22:13.023Z,91.68
2018-10-17T19:24:40.845Z,91.43
2018-10-17T19:27:08.662Z,91.96
2018-10-17T19:29:36.360Z,92.20
2018-10-17T19:32:04.238Z,91.53
2018-10-17T19:34:31.954Z,91.22
2018-10-17T19:36:59.693Z,91.47
2018-10-17T19:39:27.417Z,91.66
2018-10-17T19:41:55.194Z,92.47
2018-10-17T19:44:22.926Z,92.56
2018-10-17T19:46:50.674Z,92.30
2018-10-17T19:49:18.418Z,92.30
2018-10-17T19:51:46.152Z,93.18
2018-10-17T19:54:13.870Z,92.78
2018-10-17T19:56:41.669Z,92.60
2018-10-17T19:59:09.377Z,92.78
2018-10-17T20:01:37.162Z,93.04
2018-10-17T20:04:05.120Z,93.02
2018-10-17T20:06:32.874Z,92.45
2018-10-17T20:09:00.649Z,92.74
2018-10-17T20:11:28.366Z,91.78
2018-10-17T20:13:56.081Z,91.98
2018-10-17T20:16:23.823Z,91.37
2018-10-17T20:18:51.530Z,90.81
2018-10-17T20:21:19.309Z,91.28
2018-10-17T20:23:47.019Z,91.51
2018-10-17T20:26:14.803Z,91.59
2018-10-17T20:28:42.520Z,91.33
2018-10-17T20:31:10.267Z,91.59
2018-10-17T20:33:38.001Z,91.66
2018-10-17T20:36:06.039Z,91.69
2018-10-17T20:38:34.082Z,91.36
2018-10-17T20:41:01.766Z,91.41
2018-10-17T20:43:29.473Z,91.56
2018-10-17T20:45:57.202Z,92.00
2018-10-17T20:48:24.892Z,92.40
2018-10-17T20:50:52.593Z,92.50
2018-10-17T20:53:20.314Z,92.12
2018-10-17T20:55:48.075Z,92.15
2018-10-17T20:58:15.890Z,91.75
2018-10-17T21:00:43.571Z,92.34
2018-10-17T21:03:11.303Z,91.88
2018-10-17T21:05:39.026Z,91.66
2018-10-17T21:08:06.737Z,91.97
2018-10-17T21:10:34.462Z,92.23
2018-10-17T21:13:02.270Z,92.16
2018-10-17T21:15:29.977Z,92.81
2018-10-17T21:17:57.714Z,92.63
2018-10-17T21:20:25.414Z,92.92
2018-10-17T21:22:53.130Z,92.86
2018-10-17T21:25:20.838Z,92.90
2018-10-17T21:27:48.589Z,92.64
2018-10-17T21:30:16.421Z,92.98
2018-10-17T21:32:44.136Z,92.77
2018-10-17T21:35:11.845Z,93.21
2018-10-17T21:37:39.577Z,92.77
2018-10-17T21:40:07.301Z,92.36
2018-10-17T21:42:35.007Z,91.96
2018-10-17T21:45:02.784Z,91.60
2018-10-17T21:47:30.615Z,91.74
2018-10-17T21:49:58.243Z,91.47
2018-10-17T21:52:25.947Z,91.94
2018-10-17T21:54:53.667Z,91.88
2018-10-17T21:57:22.512Z,91.99
2018-10-17T21:59:50.225Z,92.36
2018-10-17T22:02:17.980Z,92.20
2018-10-17T22:04:45.721Z,92.59
2018-10-17T22:07:13.442Z,92.50
2018-10-17T22:09:41.343Z,91.86
2018-10-17T22:12:09.086Z,91.62
2018-10-17T22:14:36.821Z,91.88
2018-10-17T22:17:06.574Z,91.96
2018-10-17T22:19:35.368Z,92.31
2018-10-17T22:22:03.129Z,91.98
2018-10-17T22:24:30.866Z,92.38
2018-10-17T22:26:58.596Z,91.89
2018-10-17T22:29:26.346Z,91.51
2018-10-17T22:31:54.142Z,91.11
2018-10-17T22:34:21.967Z,90.93
2018-10-17T22:36:49.701Z,91.08
2018-10-17T22:39:17.412Z,91.17
2018-10-17T22:41:45.530Z,90.92
2018-10-17T22:44:13.308Z,91.17
2018-10-17T22:46:41.469Z,90.91
2018-10-17T22:49:10.057Z,90.79
2018-10-17T22:51:38.421Z,90.63
2018-10-17T22:54:06.822Z,91.09
2018-10-17T22:56:34.536Z,91.85
2018-10-17T22:59:02.254Z,91.36
2018-10-17T23:01:29.955Z,91.77
2018-10-17T23:03:57.675Z,92.55
2018-10-17T23:06:25.405Z,93.57
2018-10-17T23:08:53.176Z,93.12
2018-10-17T23:11:20.898Z,93.11
2018-10-17T23:13:48.643Z,92.96
2018-10-17T23:16:16.378Z,93.12
2018-10-17T23:18:44.085Z,93.30
2018-10-17T23:21:11.793Z,93.46
2018-10-17T23:23:39.527Z,94.44
2018-10-17T23:26:07.649Z,93.94
2018-10-17T23:28:35.610Z,93.14
2018-10-17T23:31:03.407Z,93.33
2018-10-17T23:33:31.147Z,93.62
2018-10-17T23:35:58.852Z,94.56
2018-10-17T23:38:26.571Z,94.66
2018-10-17T23:40:54.274Z,94.56
2018-10-17T23:43:22.002Z,94.37
2018-10-17T23:45:49.707Z,94.51
2018-10-17T23:48:17.481Z,94.85
2018-10-17T23:50:45.171Z,94.32
2018-10-17T23:53:12.878Z,94.22
2018-10-17T23:55:40.627Z,93.30
2018-10-17T23:58:08.385Z,92.62
